Time;durP1;ratioP1;P1;durP2;ratioP2;P2;SDS_P1;SDS_P2;PMS_P1;PMS_P2;Temp;Humidity;BMP_temperature;BMP_pressure;BME280_temperature;BME280_humidity;BME280_pressure;Samples;Min_cycle;Max_cycle;Signal;HPM_P1;HPM_P2
2023/05/10 00:00:08;;;;;;;4.80;3.70;;;;;;;9.21;56.14;100787.23;1465876;88;21479;-78
2023/05/10 00:02:35;;;;;;;4.23;3.33;;;;;;;9.22;56.03;100788.90;1466050;88;21309;-79
2023/05/10 00:05:02;;;;;;;7.07;3.03;;;;;;;9.21;56.02;100786.75;1472725;87;21347;-79
2023/05/10 00:07:28;;;;;;;5.20;3.27;;;;;;;9.22;55.83;100785.77;1466527;88;21546;-78
2023/05/10 00:09:54;;;;;;;5.33;3.07;;;;;;;9.22;55.62;100787.09;1473801;87;21495;-79
2023/05/10 00:12:21;;;;;;;5.47;3.87;;;;;;;9.22;55.60;100786.26;1473009;88;21369;-78
2023/05/10 00:14:47;;;;;;;4.53;3.17;;;;;;;9.21;55.51;100780.15;1464256;88;21500;-79
2023/05/10 00:17:14;;;;;;;5.03;3.53;;;;;;;9.20;55.55;100779.77;1476538;87;21369;-79
2023/05/10 00:19:40;;;;;;;4.27;3.00;;;;;;;9.21;55.40;100776.67;1468069;88;21472;-78
2023/05/10 00:22:06;;;;;;;7.73;3.13;;;;;;;9.21;55.64;100774.03;1469425;88;21339;-79
2023/05/10 00:24:33;;;;;;;5.20;3.47;;;;;;;9.19;55.74;100775.95;1478206;87;21294;-78
2023/05/10 00:26:59;;;;;;;5.97;3.20;;;;;;;9.17;55.52;100768.64;1475745;87;21568;-78
2023/05/10 00:29:25;;;;;;;11.73;3.90;;;;;;;9.16;55.35;100771.77;1472014;87;22195;-78
2023/05/10 00:31:51;;;;;;;8.47;3.67;;;;;;;9.14;55.22;100764.94;1473573;87;21420;-78
2023/05/10 00:34:17;;;;;;;4.87;3.67;;;;;;;9.12;55.41;100765.09;1469214;87;21398;-78
2023/05/10 00:36:43;;;;;;;6.00;3.97;;;;;;;9.10;56.32;100764.86;1480108;88;21339;-78
2023/05/10 00:39:09;;;;;;;8.80;3.77;;;;;;;9.07;55.68;100761.99;1474051;87;23033;-78
2023/05/10 00:41:36;;;;;;;5.57;3.67;;;;;;;9.05;55.90;100763.91;1473284;87;21310;-78
2023/05/10 00:44:02;;;;;;;4.53;3.17;;;;;;;9.03;55.66;100758.78;1477532;87;21317;-79
2023/05/10 00:46:29;;;;;;;6.37;3.83;;;;;;;9.00;55.84;100764.29;1461978;88;21951;-80
2023/05/10 00:48:55;;;;;;;6.30;3.90;;;;;;;8.99;55.77;100763.95;1468257;88;21361;-80
2023/05/10 00:51:22;;;;;;;9.33;3.53;;;;;;;8.95;56.27;100763.86;1472133;88;21545;-79
2023/05/10 00:53:50;;;;;;;4.67;3.17;;;;;;;8.92;55.90;100757.53;1472159;88;21459;-78
2023/05/10 00:56:17;;;;;;;4.20;2.77;;;;;;;8.88;55.94;100762.69;1468562;88;21442;-79
2023/05/10 00:58:45;;;;;;;4.80;3.33;;;;;;;8.85;56.17;100762.95;1474795;87;21412;-78
2023/05/10 01:01:12;;;;;;;4.40;2.80;;;;;;;8.80;56.26;100763.81;1471707;88;21501;-79
2023/05/10 01:03:40;;;;;;;4.87;3.17;;;;;;;8.76;56.63;100765.87;1465935;88;21375;-79
2023/05/10 01:06:07;;;;;;;3.87;2.60;;;;;;;8.70;57.06;100766.88;1481197;87;21347;-79
2023/05/10 01:08:33;;;;;;;5.83;3.23;;;;;;;8.65;57.04;100763.28;1468131;87;22249;-78
2023/05/10 01:11:00;;;;;;;9.37;3.40;;;;;;;8.59;56.93;100763.31;1478672;87;21382;-79
2023/05/10 01:13:32;;;;;;;8.27;2.90;;;;;;;8.56;57.12;100768.84;1468257;88;21324;-79
2023/05/10 01:16:02;;;;;;;9.73;3.33;;;;;;;8.53;57.26;100763.81;1477608;87;21412;-80
2023/05/10 01:18:36;;;;;;;6.87;3.30;;;;;;;8.49;57.28;100765.05;1470317;87;21405;-79
2023/05/10 01:21:34;;;;;;;6.23;3.63;;;;;;;8.45;57.18;100762.28;1465726;88;21384;-79
2023/05/10 01:24:12;;;;;;;6.20;2.87;;;;;;;8.42;57.94;100763.02;1468741;87;21361;-80
2023/05/10 01:27:16;;;;;;;5.63;4.30;;;;;;;8.37;58.00;100762.03;1466138;87;21479;-79
2023/05/10 01:30:11;;;;;;;6.70;4.13;;;;;;;8.31;57.81;100763.86;1478536;87;21644;-79
2023/05/10 01:32:45;;;;;;;10.17;3.53;;;;;;;8.26;58.01;100764.73;1471755;87;21524;-79
2023/05/10 01:35:29;;;;;;;6.80;3.80;;;;;;;8.23;58.00;100766.27;1467982;87;21457;-79
2023/05/10 01:38:06;;;;;;;5.43;3.70;;;;;;;8.18;58.29;100765.34;1478159;88;22308;-80
2023/05/10 01:40:56;;;;;;;5.00;3.70;;;;;;;8.15;58.37;100765.59;1470094;88;21391;-80
2023/05/10 01:43:28;;;;;;;8.03;3.07;;;;;;;8.10;58.70;100762.00;1474279;87;21398;-80
2023/05/10 01:46:10;;;;;;;8.03;3.40;;;;;;;8.06;59.64;100759.75;1475711;88;22175;-79
2023/05/10 01:48:34;;;;;;;5.10;3.33;;;;;;;8.02;59.36;100762.26;1463168;88;22336;-78
2023/05/10 01:51:01;;;;;;;9.13;4.47;;;;;;;8.00;59.42;100758.89;1471380;87;21376;-80
2023/05/10 01:53:28;;;;;;;7.10;3.70;;;;;;;7.98;59.99;100756.89;1467896;87;21480;-79
2023/05/10 01:55:56;;;;;;;5.67;3.43;;;;;;;7.98;59.47;100751.62;1470752;87;22543;-81
2023/05/10 01:58:32;;;;;;;5.30;4.00;;;;;;;7.94;59.44;100753.67;1471129;87;21502;-79
2023/05/10 02:01:02;;;;;;;5.07;3.50;;;;;;;7.91;59.40;100757.38;1472054;87;21398;-79
2023/05/10 02:03:31;;;;;;;8.87;3.80;;;;;;;7.89;59.65;100748.75;1482843;87;21975;-79
2023/05/10 02:05:58;;;;;;;6.07;4.23;;;;;;;7.85;59.75;100746.47;1467437;88;22560;-79
2023/05/10 02:08:26;;;;;;;4.77;3.63;;;;;;;7.81;59.58;100742.41;1474141;88;21332;-80
2023/05/10 02:10:56;;;;;;;11.00;4.13;;;;;;;7.79;59.86;100743.84;1466550;88;21376;-80
2023/05/10 02:13:25;;;;;;;6.23;3.63;;;;;;;7.77;59.99;100733.06;1468287;88;21597;-79
2023/05/10 02:15:54;;;;;;;7.20;4.00;;;;;;;7.74;60.03;100738.58;1464464;87;21376;-80
2023/05/10 02:18:24;;;;;;;6.93;4.07;;;;;;;7.72;59.97;100740.52;1474765;87;22525;-79
2023/05/10 02:20:52;;;;;;;8.77;3.87;;;;;;;7.68;60.25;100737.27;1467886;87;22308;-80
2023/05/10 02:23:20;;;;;;;6.07;4.20;;;;;;;7.65;60.10;100741.01;1471962;88;21338;-79
2023/05/10 02:25:49;;;;;;;6.83;3.60;;;;;;;7.62;60.85;100739.07;1473631;88;21361;-79
2023/05/10 02:28:17;;;;;;;8.67;3.90;;;;;;;7.61;60.24;100742.67;1455308;87;21360;-80
2023/05/10 02:30:44;;;;;;;5.67;3.63;;;;;;;7.55;60.77;100737.41;1468941;88;21391;-79
2023/05/10 02:33:11;;;;;;;8.40;4.27;;;;;;;7.53;61.59;100738.00;1473435;87;21354;-80
2023/05/10 02:35:38;;;;;;;7.57;4.23;;;;;;;7.50;60.79;100734.29;1448941;88;21406;-80
2023/05/10 02:38:06;;;;;;;5.93;3.90;;;;;;;7.48;61.70;100738.86;1468486;88;21442;-78
2023/05/10 02:40:33;;;;;;;6.57;3.77;;;;;;;7.46;61.07;100738.13;1525104;87;21502;-79
2023/05/10 02:43:02;;;;;;;8.30;4.60;;;;;;;7.43;61.35;100734.42;1473717;88;21457;-79
2023/05/10 02:45:32;;;;;;;5.27;3.80;;;;;;;7.38;61.40;100733.45;1468085;88;21517;-79
2023/05/10 02:47:59;;;;;;;8.37;3.80;;;;;;;7.36;61.96;100739.80;1400254;88;21358;-78
2023/05/10 02:50:28;;;;;;;10.10;4.17;;;;;;;7.33;61.91;100736.09;1557854;88;21300;-78
2023/05/10 02:53:00;;;;;;;6.70;3.90;;;;;;;7.32;61.59;100739.20;1425790;87;21345;-79
2023/05/10 02:55:35;;;;;;;6.13;3.37;;;;;;;7.30;62.00;100735.84;1466871;87;21471;-79
2023/05/10 02:58:03;;;;;;;11.37;3.87;;;;;;;7.27;62.96;100735.25;1466528;88;21568;-79
2023/05/10 03:00:29;;;;;;;5.93;3.43;;;;;;;7.26;62.52;100736.22;1396139;88;21243;-78
2023/05/10 03:02:55;;;;;;;4.87;2.80;;;;;;;7.27;62.71;100732.61;1558036;88;21192;-79
2023/05/10 03:05:22;;;;;;;8.93;3.33;;;;;;;7.29;62.85;100730.71;1407993;87;22066;-78
2023/05/10 03:07:48;;;;;;;5.40;3.60;;;;;;;7.31;63.52;100731.41;1397705;87;21380;-80
2023/05/10 03:10:15;;;;;;;4.87;3.27;;;;;;;7.35;63.10;100728.43;1397617;87;21214;-78
2023/05/10 03:12:58;;;;;;;7.07;4.67;;;;;;;7.39;62.93;100734.29;1397591;87;21482;-79
2023/05/10 03:16:00;;;;;;;7.20;4.10;;;;;;;7.38;63.24;100724.23;1429566;88;22338;-81
2023/05/10 03:18:44;;;;;;;7.87;4.80;;;;;;;7.38;63.24;100724.23;1556798;88;21384;-79
2023/05/10 03:21:15;;;;;;;4.87;3.87;;;;;;;7.43;62.99;100730.47;1544497;88;21339;-80
2023/05/10 03:24:01;;;;;;;8.10;4.35;;;;;;;7.44;63.60;100737.41;1551712;88;22204;-78
2023/05/10 03:26:28;;;;;;;7.93;4.47;;;;;;;7.43;62.86;100733.11;1551858;88;21472;-79
2023/05/10 03:28:55;;;;;;;5.47;3.90;;;;;;;7.42;63.59;100731.41;1391303;89;21259;-80
2023/05/10 03:31:22;;;;;;;10.83;4.37;;;;;;;7.44;63.00;100733.45;1396386;87;21310;-79
2023/05/10 03:33:50;;;;;;;7.10;3.77;;;;;;;7.44;63.31;100737.41;1408258;87;21472;-78
2023/05/10 03:36:16;;;;;;;6.77;3.90;;;;;;;7.45;63.43;100733.80;1436860;87;21369;-79
2023/05/10 03:38:42;;;;;;;10.43;4.60;;;;;;;7.46;63.87;100734.19;1475554;87;21368;-79
2023/05/10 03:41:09;;;;;;;7.10;3.87;;;;;;;7.48;63.84;100725.69;1474964;88;21584;-79
2023/05/10 03:43:36;;;;;;;9.07;4.73;;;;;;;7.52;63.51;100727.59;1466905;87;21468;-80
2023/05/10 03:46:05;;;;;;;8.77;4.20;;;;;;;7.58;63.55;100731.06;1469301;87;21413;-80
2023/05/10 03:48:33;;;;;;;7.60;3.87;;;;;;;7.61;63.43;100731.66;1468970;87;21420;-77
2023/05/10 03:50:59;;;;;;;6.43;3.90;;;;;;;7.67;63.85;100727.21;1477547;88;21471;-78
2023/05/10 03:53:26;;;;;;;4.43;3.13;;;;;;;7.73;63.77;100730.33;1471596;87;21435;-80
2023/05/10 03:55:53;;;;;;;7.10;4.27;;;;;;;7.79;63.33;100724.08;1473137;87;21420;-80
2023/05/10 03:58:19;;;;;;;8.80;4.13;;;;;;;7.86;63.25;100724.45;1472389;87;21338;-79
2023/05/10 04:00:45;;;;;;;5.87;4.10;;;;;;;7.95;63.26;100723.70;1474539;87;21346;-80
2023/05/10 04:03:12;;;;;;;5.47;3.43;;;;;;;8.04;63.12;100730.03;1473675;88;21347;-80
2023/05/10 04:05:38;;;;;;;6.20;3.67;;;;;;;8.13;63.50;100727.48;1471810;88;21512;-79
2023/05/10 04:08:05;;;;;;;5.57;3.67;;;;;;;8.22;62.80;100727.70;1464894;88;21367;-80
2023/05/10 04:10:31;;;;;;;7.47;3.60;;;;;;;8.30;62.74;100722.15;1470588;87;21338;-78
2023/05/10 04:12:57;;;;;;;7.23;3.70;;;;;;;8.40;62.97;100725.37;1471046;88;21427;-78
2023/05/10 04:15:24;;;;;;;6.13;3.57;;;;;;;8.47;62.92;100732.67;1471957;88;21405;-79
2023/05/10 04:17:50;;;;;;;4.83;3.60;;;;;;;8.53;62.59;100726.05;1465357;88;21471;-78
2023/05/10 04:20:17;;;;;;;7.07;3.77;;;;;;;8.59;62.10;100727.69;1470977;87;21633;-79
2023/05/10 04:22:43;;;;;;;4.00;3.10;;;;;;;8.66;61.94;100739.91;1473996;87;21583;-79
2023/05/10 04:25:09;;;;;;;5.63;3.63;;;;;;;8.73;62.31;100737.59;1468255;87;21391;-79
2023/05/10 04:27:36;;;;;;;5.07;3.23;;;;;;;8.76;62.27;100736.84;1474371;87;22367;-78
2023/05/10 04:30:03;;;;;;;4.00;3.13;;;;;;;8.81;61.69;100741.26;1469324;87;21381;-78
2023/05/10 04:32:30;;;;;;;4.20;3.17;;;;;;;8.85;62.20;100741.83;1472248;87;21317;-78
2023/05/10 04:34:56;;;;;;;14.53;4.73;;;;;;;8.91;61.56;100743.95;1473608;87;21457;-78
2023/05/10 04:37:22;;;;;;;4.43;2.93;;;;;;;8.94;61.29;100742.37;1486174;87;21324;-81
2023/05/10 04:39:49;;;;;;;7.03;3.40;;;;;;;9.00;61.16;100744.48;1474876;87;21665;-80
2023/05/10 04:42:15;;;;;;;9.37;4.47;;;;;;;9.02;61.38;100745.20;1473452;87;21376;-79
2023/05/10 04:44:41;;;;;;;8.27;3.70;;;;;;;9.08;61.54;100743.02;1463699;88;22337;-80
2023/05/10 04:47:08;;;;;;;6.47;3.23;;;;;;;9.12;61.49;100745.74;1473640;87;21491;-80
2023/05/10 04:49:34;;;;;;;4.87;3.60;;;;;;;9.17;61.12;100738.27;1471805;87;21375;-80
2023/05/10 04:52:00;;;;;;;9.33;3.30;;;;;;;9.21;61.16;100737.06;1473818;87;21391;-80
2023/05/10 04:54:26;;;;;;;8.63;3.57;;;;;;;9.25;61.57;100745.06;1470166;88;21419;-81
2023/05/10 04:56:52;;;;;;;7.07;3.43;;;;;;;9.27;61.26;100736.53;1479777;87;22248;-82
2023/05/10 04:59:19;;;;;;;7.93;4.47;;;;;;;9.31;61.36;100735.78;1473472;87;21317;-81
2023/05/10 05:01:45;;;;;;;14.03;3.90;;;;;;;9.35;61.22;100736.71;1469580;88;22183;-81
2023/05/10 05:04:11;;;;;;;5.13;3.40;;;;;;;9.38;61.99;100743.05;1477504;88;22404;-80
2023/05/10 05:06:38;;;;;;;9.47;3.40;;;;;;;9.41;61.38;100748.06;1475425;87;21369;-80
2023/05/10 05:09:04;;;;;;;6.03;3.13;;;;;;;9.42;61.58;100733.88;1473644;88;21605;-81
2023/05/10 05:11:30;;;;;;;9.87;4.73;;;;;;;9.46;62.11;100737.91;1472059;88;21398;-81
2023/05/10 05:13:58;;;;;;;5.47;3.70;;;;;;;9.48;61.51;100745.23;1475649;87;22329;-80
2023/05/10 05:16:25;;;;;;;5.47;3.97;;;;;;;9.53;61.87;100742.70;1472249;87;21406;-80
2023/05/10 05:18:51;;;;;;;6.20;3.53;;;;;;;9.57;61.92;100740.12;1472154;87;21457;-81
2023/05/10 05:21:19;;;;;;;6.57;3.97;;;;;;;9.61;61.91;100745.02;1471871;87;21376;-81
2023/05/10 05:23:46;;;;;;;7.60;3.70;;;;;;;9.64;62.83;100743.92;1470014;87;21556;-80
2023/05/10 05:26:12;;;;;;;7.70;3.10;;;;;;;9.67;63.40;100743.66;1470697;87;21391;-81
2023/05/10 05:28:48;;;;;;;5.60;3.33;;;;;;;9.70;63.91;100744.22;1471730;88;21370;-81
2023/05/10 05:31:12;;;;;;;4.87;3.30;;;;;;;9.76;64.04;100744.16;1556374;87;21317;-80
2023/05/10 05:33:40;;;;;;;7.33;3.63;;;;;;;9.84;64.18;100748.30;1446174;88;21639;-81
2023/05/10 05:36:06;;;;;;;12.53;3.70;;;;;;;9.91;64.63;100751.22;1470735;87;21390;-81
2023/05/10 05:38:36;;;;;;;6.10;3.87;;;;;;;9.96;64.44;100749.02;1469271;88;21566;-80
2023/05/10 05:41:02;;;;;;;4.27;3.43;;;;;;;9.99;63.85;100743.95;1468667;88;21598;-80
2023/05/10 05:43:29;;;;;;;7.33;3.30;;;;;;;10.05;64.18;100750.84;1469799;87;22476;-80
2023/05/10 05:45:57;;;;;;;6.20;3.30;;;;;;;10.09;64.01;100745.62;1471084;88;21546;-80
2023/05/10 05:48:26;;;;;;;7.30;4.03;;;;;;;10.13;63.59;100751.00;1470789;87;22610;-75
2023/05/10 05:50:56;;;;;;;7.13;3.10;;;;;;;10.19;63.21;100750.94;1469604;88;21443;-76
2023/05/10 05:53:23;;;;;;;4.67;2.90;;;;;;;10.26;62.74;100748.08;1470721;88;22427;-81
2023/05/10 05:55:54;;;;;;;7.47;2.97;;;;;;;10.30;62.49;100752.17;1461893;88;21405;-82
2023/05/10 05:58:23;;;;;;;5.67;3.33;;;;;;;10.34;62.56;100752.72;1394793;88;21236;-81
2023/05/10 06:00:50;;;;;;;5.33;3.23;;;;;;;10.39;62.62;100747.37;1401088;87;22250;-80
2023/05/10 06:03:16;;;;;;;5.30;3.03;;;;;;;10.44;61.84;100757.52;1558071;87;21251;-80
2023/05/10 06:05:42;;;;;;;5.13;3.50;;;;;;;10.48;61.56;100758.09;1398349;87;22080;-81
2023/05/10 06:08:09;;;;;;;6.37;3.27;;;;;;;10.50;61.53;100758.31;1473599;87;21347;-81
2023/05/10 06:10:36;;;;;;;5.33;3.37;;;;;;;10.57;61.18;100758.58;1472822;87;21476;-81
2023/05/10 06:13:03;;;;;;;8.53;3.20;;;;;;;10.60;61.88;100756.48;1391144;89;21229;-81
2023/05/10 06:15:29;;;;;;;4.57;2.97;;;;;;;10.66;61.36;100759.06;1403607;88;21265;-81
2023/05/10 06:17:55;;;;;;;5.27;2.90;;;;;;;10.70;61.24;100764.41;1397969;87;21236;-80
2023/05/10 06:20:21;;;;;;;5.13;3.20;;;;;;;10.75;60.71;100759.54;1447051;87;22003;-80
2023/05/10 06:22:47;;;;;;;4.00;3.20;;;;;;;10.82;60.40;100762.48;1474764;87;21412;-81
2023/05/10 06:25:14;;;;;;;10.00;3.57;;;;;;;10.90;60.57;100759.11;1470247;87;21302;-80
2023/05/10 06:27:40;;;;;;;6.23;3.23;;;;;;;10.97;60.34;100755.76;1466340;87;21450;-77
2023/05/10 06:30:08;;;;;;;10.40;4.00;;;;;;;11.05;60.39;100755.89;1476876;87;21346;-78
2023/05/10 06:32:35;;;;;;;10.77;5.83;;;;;;;11.16;60.22;100757.52;1472399;87;21365;-76
2023/05/10 06:35:01;;;;;;;13.90;7.00;;;;;;;11.25;59.55;100756.67;1467693;87;22366;-77
2023/05/10 06:37:27;;;;;;;22.30;9.70;;;;;;;11.36;59.60;100757.47;1469078;88;21413;-79
2023/05/10 06:39:53;;;;;;;19.87;10.17;;;;;;;11.43;58.91;100754.10;1470873;88;21405;-79
2023/05/10 06:42:19;;;;;;;14.47;8.73;;;;;;;11.53;59.04;100754.05;1476361;88;21317;-80
2023/05/10 06:44:45;;;;;;;13.77;7.00;;;;;;;11.61;58.91;100758.14;1474174;87;22426;-80
2023/05/10 06:47:11;;;;;;;9.63;4.30;;;;;;;11.69;58.55;100762.72;1470224;87;21852;-80
2023/05/10 06:49:38;;;;;;;8.83;3.87;;;;;;;11.77;58.21;100756.66;1475383;87;21406;-80
2023/05/10 06:52:04;;;;;;;5.93;3.50;;;;;;;11.84;57.96;100755.11;1465786;88;21472;-80
2023/05/10 06:54:30;;;;;;;6.43;3.60;;;;;;;11.89;57.69;100757.69;1473381;87;21354;-80
2023/05/10 06:56:56;;;;;;;6.23;3.73;;;;;;;11.94;57.64;100754.61;1468792;87;21665;-79
2023/05/10 06:59:22;;;;;;;8.87;3.23;;;;;;;12.02;57.31;100755.17;1472182;87;21450;-80
2023/05/10 07:01:49;;;;;;;10.27;4.60;;;;;;;12.10;57.25;100754.77;1487367;87;21356;-80
2023/05/10 07:04:15;;;;;;;3.83;2.93;;;;;;;12.16;56.97;100754.66;1472463;87;22535;-82
2023/05/10 07:06:41;;;;;;;3.93;3.10;;;;;;;12.23;56.76;100753.56;1471693;87;21383;-80
2023/05/10 07:09:07;;;;;;;8.33;4.23;;;;;;;12.28;56.80;100756.11;1474359;88;21472;-80
2023/05/10 07:11:33;;;;;;;5.93;3.83;;;;;;;12.36;56.33;100751.38;1472135;87;21361;-80
2023/05/10 07:13:59;;;;;;;7.37;3.63;;;;;;;12.44;56.15;100754.12;1460680;88;21719;-79
2023/05/10 07:16:26;;;;;;;4.90;3.00;;;;;;;12.52;55.85;100754.20;1475880;88;22410;-80
2023/05/10 07:18:53;;;;;;;7.03;4.20;;;;;;;12.60;55.76;100751.63;1468611;87;21656;-81
2023/05/10 07:21:19;;;;;;;19.60;4.80;;;;;;;12.70;54.93;100757.33;1467171;88;21354;-80
2023/05/10 07:23:45;;;;;;;9.37;3.90;;;;;;;12.77;54.72;100751.73;1472064;87;21414;-80
2023/05/10 07:26:12;;;;;;;6.77;3.30;;;;;;;12.88;54.60;100759.46;1470714;88;22285;-80
2023/05/10 07:28:38;;;;;;;9.30;3.03;;;;;;;12.99;54.36;100757.06;1474687;87;21495;-80
2023/05/10 07:31:05;;;;;;;4.33;2.93;;;;;;;13.06;53.54;100749.65;1474018;87;21339;-80
2023/05/10 07:33:31;;;;;;;3.87;2.63;;;;;;;13.15;53.21;100754.52;1473921;87;21576;-80
2023/05/10 07:35:57;;;;;;;6.50;3.07;;;;;;;13.25;52.91;100761.05;1470248;87;22345;-80
2023/05/10 07:38:24;;;;;;;7.60;3.27;;;;;;;13.33;52.42;100762.97;1476036;87;21302;-80
2023/05/10 07:40:51;;;;;;;5.40;2.90;;;;;;;13.42;52.61;100754.86;1470059;87;21390;-80
2023/05/10 07:43:17;;;;;;;6.53;3.43;;;;;;;13.54;52.24;100753.59;1430860;88;21406;-79
2023/05/10 07:45:43;;;;;;;5.90;3.57;;;;;;;13.68;52.29;100756.66;1418857;87;21361;-80
2023/05/10 07:48:10;;;;;;;7.70;3.77;;;;;;;13.82;52.33;100756.55;1469482;88;21508;-80
2023/05/10 07:50:43;;;;;;;7.17;3.03;;;;;;;13.95;52.23;100757.77;1466864;88;22420;-80
2023/05/10 07:53:09;;;;;;;5.23;2.83;;;;;;;14.07;51.68;100758.30;1469933;87;21398;-79
2023/05/10 07:55:35;;;;;;;8.20;3.33;;;;;;;14.21;51.58;100760.80;1469374;87;22133;-79
2023/05/10 07:58:02;;;;;;;6.10;2.90;;;;;;;14.34;51.00;100760.34;1472212;87;21346;-80
2023/05/10 08:00:28;;;;;;;5.30;3.10;;;;;;;14.43;50.67;100761.52;1470148;88;22314;-81
2023/05/10 08:02:54;;;;;;;8.07;2.67;;;;;;;14.60;50.89;100758.41;1467810;88;21376;-80
2023/05/10 08:05:21;;;;;;;4.83;2.73;;;;;;;14.76;50.51;100762.06;1472329;87;21287;-78
2023/05/10 08:07:47;;;;;;;5.73;2.80;;;;;;;14.91;50.12;100763.58;1479814;87;22463;-81
2023/05/10 08:10:13;;;;;;;7.40;3.77;;;;;;;15.04;49.77;100765.21;1472189;87;21310;-81
2023/05/10 08:12:42;;;;;;;7.13;3.47;;;;;;;15.16;49.06;100759.03;1471517;88;21367;-80
2023/05/10 08:15:10;;;;;;;7.50;3.50;;;;;;;15.27;48.58;100762.67;1474089;87;21575;-81
2023/05/10 08:17:36;;;;;;;9.70;2.97;;;;;;;15.32;48.17;100756.34;1448255;88;21359;-80
2023/05/10 08:20:03;;;;;;;5.77;2.80;;;;;;;15.43;47.67;100764.48;1459973;87;21539;-81
2023/05/10 08:22:29;;;;;;;8.70;3.07;;;;;;;15.53;47.11;100756.59;1484773;87;21575;-80
2023/05/10 08:24:55;;;;;;;6.27;3.60;;;;;;;15.73;47.71;100751.72;1474195;87;21383;-80
2023/05/10 08:27:21;;;;;;;6.10;3.30;;;;;;;15.93;47.42;100753.97;1472782;87;21369;-80
2023/05/10 08:29:47;;;;;;;7.93;3.30;;;;;;;16.11;47.76;100757.23;1474327;87;21324;-81
2023/05/10 08:32:14;;;;;;;7.53;3.13;;;;;;;16.19;45.76;100749.66;1475434;87;21377;-80
2023/05/10 08:34:40;;;;;;;6.50;3.20;;;;;;;16.17;45.58;100755.19;1469724;87;21390;-80
2023/05/10 08:37:07;;;;;;;11.13;3.00;;;;;;;16.20;45.75;100757.50;1465549;88;21354;-80
2023/05/10 08:39:37;;;;;;;9.63;3.23;;;;;;;16.21;45.41;100748.47;1471102;87;22420;-81
2023/05/10 08:42:05;;;;;;;4.60;2.58;;;;;;;16.24;45.22;100753.45;1471611;87;21369;-79
2023/05/10 08:44:34;;;;;;;4.80;2.50;;;;;;;16.24;44.99;100744.11;1470518;88;21295;-80
2023/05/10 08:47:06;;;;;;;5.60;2.47;;;;;;;16.27;44.73;100753.61;1466838;88;21354;-81
2023/05/10 08:49:33;;;;;;;4.27;2.63;;;;;;;16.27;44.91;100753.61;1551836;87;21310;-81
2023/05/10 08:52:05;;;;;;;7.00;2.90;;;;;;;16.27;43.91;100746.94;1449434;87;21354;-81
2023/05/10 08:54:34;;;;;;;3.10;2.00;;;;;;;16.28;44.17;100755.77;1475393;87;21287;-81
2023/05/10 08:57:01;;;;;;;9.37;2.67;;;;;;;16.34;44.08;100752.39;1477476;87;21442;-80
2023/05/10 09:00:39;;;;;;;3.03;2.30;;;;;;;16.37;43.46;100754.23;1500936;88;22271;-79
2023/05/10 09:03:06;;;;;;;3.67;2.40;;;;;;;16.35;42.26;100748.73;1474450;87;21376;-80
2023/05/10 09:05:33;;;;;;;11.33;3.00;;;;;;;16.42;43.03;100742.48;1475423;87;21273;-81
2023/05/10 09:08:00;;;;;;;7.77;2.50;;;;;;;16.53;42.89;100740.41;1471271;88;21413;-81
2023/05/10 09:10:27;;;;;;;3.10;2.47;;;;;;;16.64;42.55;100738.14;1470395;87;21501;-82
2023/05/10 09:12:57;;;;;;;2.80;1.97;;;;;;;16.84;43.75;100739.84;1473805;88;21347;-80
2023/05/10 09:15:23;;;;;;;3.53;2.20;;;;;;;17.16;43.39;100734.37;1473150;87;21413;-82
2023/05/10 09:17:50;;;;;;;3.70;2.43;;;;;;;17.35;42.13;100733.83;1470421;88;21398;-80
2023/05/10 09:20:17;;;;;;;7.13;2.30;;;;;;;17.37;40.59;100735.80;1472615;88;21354;-80
2023/05/10 09:22:45;;;;;;;2.60;2.00;;;;;;;17.40;40.79;100731.41;1472690;87;21324;-80
2023/05/10 09:25:14;;;;;;;5.80;2.10;;;;;;;17.40;40.18;100724.72;1468643;88;22300;-81
2023/05/10 09:27:44;;;;;;;3.77;2.50;;;;;;;17.29;40.64;100731.39;1470093;87;21391;-81
2023/05/10 09:30:25;;;;;;;3.20;2.20;;;;;;;17.27;39.73;100714.69;1464016;88;21464;-82
2023/05/10 09:32:52;;;;;;;4.00;2.27;;;;;;;17.21;39.59;100716.76;1557773;87;21932;-81
2023/05/10 09:35:21;;;;;;;3.20;1.93;;;;;;;17.20;38.78;100712.92;1401895;88;21332;-81
2023/05/10 09:37:50;;;;;;;2.67;2.30;;;;;;;17.25;39.57;100711.86;1557804;87;22058;-82
2023/05/10 09:40:19;;;;;;;4.47;1.95;;;;;;;17.28;39.20;100710.16;1393893;88;21318;-81
2023/05/10 09:42:57;;;;;;;5.73;2.00;;;;;;;17.31;39.33;100707.94;1394635;87;21295;-80
2023/05/10 09:45:28;;;;;;;2.30;1.50;;;;;;;17.33;38.36;100702.41;1469976;87;21554;-81
2023/05/10 09:47:55;;;;;;;6.03;2.12;;;;;;;17.33;37.49;100699.23;1477374;88;21362;-81
2023/05/10 09:50:22;;;;;;;12.70;2.37;;;;;;;17.26;36.01;100697.47;1474634;87;21369;-81
2023/05/10 09:52:58;;;;;;;6.03;2.50;;;;;;;17.25;36.60;100698.49;1474569;87;21346;-82
2023/05/10 09:55:37;;;;;;;11.87;2.30;;;;;;;17.31;36.55;100692.40;1478024;88;21405;-82
2023/05/10 09:58:09;;;;;;;9.07;1.80;;;;;;;17.40;36.42;100689.94;1472142;88;22285;-81
2023/05/10 10:00:37;;;;;;;14.30;2.00;;;;;;;17.83;36.04;100690.09;1467685;88;22300;-82
2023/05/10 10:03:04;;;;;;;;;;;;;;;18.33;36.39;100687.02;1475619;87;21487;-81
2023/05/10 10:05:32;;;;;;;6.70;2.20;;;;;;;18.46;35.10;100680.41;1471352;87;20499;-81
2023/05/10 10:07:59;;;;;;;4.57;1.60;;;;;;;18.65;35.74;100684.81;1469864;88;21347;-80
2023/05/10 10:10:26;;;;;;;3.97;1.83;;;;;;;18.83;35.13;100670.43;1475122;87;21361;-81
2023/05/10 10:12:55;;;;;;;4.67;1.80;;;;;;;18.98;35.01;100677.53;1472857;88;21524;-81
2023/05/10 10:15:24;;;;;;;8.30;1.87;;;;;;;19.23;35.27;100677.38;1481025;87;21652;-83
2023/05/10 10:17:52;;;;;;;4.92;1.50;;;;;;;19.44;34.56;100668.91;1471857;87;21413;-81
2023/05/10 10:20:20;;;;;;;2.80;1.90;;;;;;;19.57;34.93;100677.03;1477105;88;21464;-82
2023/05/10 10:22:47;;;;;;;2.60;1.87;;;;;;;19.93;34.49;100669.21;1468923;88;21552;-83
2023/05/10 10:25:16;;;;;;;2.27;1.95;;;;;;;20.29;34.64;100666.18;1470632;87;21384;-83
2023/05/10 10:27:57;;;;;;;2.95;1.82;;;;;;;20.67;34.97;100662.38;1469486;87;21516;-83
2023/05/10 10:30:55;;;;;;;8.23;2.58;;;;;;;21.06;34.56;100659.33;1467507;87;22595;-83
2023/05/10 10:33:54;;;;;;;3.42;2.00;;;;;;;21.40;33.24;100654.14;1472422;87;21406;-83
2023/05/10 10:36:20;;;;;;;2.15;1.90;;;;;;;21.65;32.13;100659.34;1472123;88;21464;-83
2023/05/10 10:39:00;;;;;;;2.98;2.17;;;;;;;21.81;31.40;100654.80;1477274;88;22315;-83
2023/05/10 10:41:35;;;;;;;3.25;1.70;;;;;;;21.64;30.16;100658.52;1473964;87;21649;-83
2023/05/10 10:44:34;;;;;;;2.72;2.08;;;;;;;21.38;31.84;100642.78;1472557;87;21332;-83
2023/05/10 10:47:24;;;;;;;1.70;1.60;;;;;;;21.10;31.89;100644.40;1473825;88;21531;-83
2023/05/10 10:50:06;;;;;;;2.80;2.15;;;;;;;21.08;32.05;100644.30;1473479;87;21369;-85
2023/05/10 10:52:41;;;;;;;3.70;1.95;;;;;;;21.28;31.43;100642.36;1463470;88;21490;-82
2023/05/10 10:55:15;;;;;;;4.17;1.52;;;;;;;21.57;31.87;100636.98;1472336;87;22322;-83
2023/05/10 10:57:46;;;;;;;4.03;1.98;;;;;;;21.86;31.69;100637.45;1474241;87;22684;-83
2023/05/10 11:00:36;;;;;;;3.30;1.90;;;;;;;22.03;30.36;100639.92;1476539;87;22500;-84
2023/05/10 11:03:10;;;;;;;5.62;1.98;;;;;;;22.13;30.67;100632.72;1486223;87;21428;-87
2023/05/10 11:05:45;;;;;;;7.72;1.60;;;;;;;21.90;30.28;100633.30;1470723;87;21517;-81
2023/05/10 11:08:32;;;;;;;2.55;2.00;;;;;;;21.54;30.10;100630.69;1477392;87;21398;-81
2023/05/10 11:11:06;;;;;;;2.85;1.47;;;;;;;21.37;30.78;100629.00;1474265;87;21473;-83
2023/05/10 11:13:43;;;;;;;1.75;1.57;;;;;;;21.13;30.04;100631.86;1467532;88;21539;-84
2023/05/10 11:16:23;;;;;;;5.10;1.87;;;;;;;20.94;30.11;100622.83;1467588;87;21406;-82
2023/05/10 11:19:02;;;;;;;2.65;2.05;;;;;;;20.81;30.90;100627.41;1475041;87;21367;-83
2023/05/10 11:21:33;;;;;;;6.22;1.70;;;;;;;20.68;30.37;100619.64;1470650;87;21549;-83
2023/05/10 11:24:06;;;;;;;2.67;1.85;;;;;;;20.62;30.76;100615.63;1465137;88;22229;-83
2023/05/10 11:26:35;;;;;;;3.30;1.52;;;;;;;20.55;30.40;100614.83;1463135;88;21368;-80
2023/05/10 11:29:02;;;;;;;2.27;1.75;;;;;;;20.41;29.70;100624.72;1473859;87;21464;-83
2023/05/10 11:31:29;;;;;;;2.42;1.72;;;;;;;20.28;29.58;100618.33;1470482;87;22322;-83
2023/05/10 11:33:58;;;;;;;1.95;1.57;;;;;;;20.31;30.16;100620.27;1469309;88;21369;-83
2023/05/10 11:36:29;;;;;;;7.75;4.08;;;;;;;20.34;30.32;100613.13;1473395;88;21420;-83
2023/05/10 11:38:56;;;;;;;11.03;3.37;;;;;;;20.50;30.35;100610.03;1474637;87;21383;-84